createdAt,value
2024-05-09T00:09:01.125Z,15.75
2024-05-09T00:19:03.132Z,15.79
2024-05-09T00:29:05.360Z,15.71
2024-05-09T00:39:07.241Z,15.67
2024-05-09T00:49:09.549Z,15.55
2024-05-09T00:59:13.094Z,15.49
2024-05-09T01:09:15.373Z,15.54
2024-05-09T01:19:26.971Z,15.62
2024-05-09T01:29:29.070Z,15.54
2024-05-09T01:39:31.068Z,15.55
2024-05-09T01:49:36.342Z,15.49
2024-05-09T01:59:38.274Z,15.46
2024-05-09T02:09:42.146Z,15.37
2024-05-09T02:19:44.219Z,15.25
2024-05-09T02:29:46.165Z,15.14
2024-05-09T02:39:48.015Z,15.01
2024-05-09T02:49:50.082Z,15.01
2024-05-09T02:59:53.050Z,15.03
2024-05-09T03:09:55.003Z,15.02
2024-05-09T03:19:57.068Z,14.95
2024-05-09T03:29:58.830Z,15.01
2024-05-09T03:40:02.693Z,14.91
2024-05-09T03:50:05.917Z,15.10
2024-05-09T04:00:17.920Z,15.04
2024-05-09T04:10:33.928Z,15.00
2024-05-09T04:20:39.928Z,15.01
2024-05-09T04:30:43.456Z,15.17
2024-05-09T04:40:45.925Z,15.26
2024-05-09T04:50:48.243Z,15.50
2024-05-09T05:00:50.373Z,15.74
2024-05-09T05:10:52.445Z,15.89
2024-05-09T05:20:56.452Z,16.22
2024-05-09T05:31:00.357Z,16.54
2024-05-09T05:41:03.268Z,17.01
2024-05-09T05:51:08.921Z,17.17
2024-05-09T06:01:12.382Z,17.33
2024-05-09T06:11:15.597Z,17.12
2024-05-09T06:21:29.681Z,16.56
2024-05-09T06:31:31.750Z,16.60
2024-05-09T06:41:33.808Z,17.16
2024-05-09T06:51:39.412Z,18.05
2024-05-09T07:01:41.810Z,18.55
2024-05-09T07:11:43.802Z,19.02
2024-05-09T07:21:45.800Z,18.68
2024-05-09T07:31:48.839Z,18.84
2024-05-09T07:41:51.389Z,19.77
2024-05-09T07:53:21.663Z,21.50
2024-05-09T08:02:18.276Z,22.06
2024-05-09T08:12:20.630Z,20.64
2024-05-09T08:22:22.695Z,20.48
2024-05-09T08:32:27.409Z,21.12
2024-05-09T08:42:36.524Z,20.31
2024-05-09T08:52:42.055Z,21.46
2024-05-09T09:02:45.454Z,21.59
2024-05-09T09:12:58.774Z,21.62
2024-05-09T09:23:01.782Z,23.28
2024-05-09T09:33:04.156Z,30.06
2024-05-09T09:43:14.297Z,29.65
2024-05-09T09:53:17.120Z,34.14
2024-05-09T10:03:19.296Z,32.52
2024-05-09T10:13:35.059Z,34.30
2024-05-09T10:23:37.243Z,31.62
2024-05-09T10:33:51.180Z,31.28
2024-05-09T10:43:54.299Z,30.58
2024-05-09T10:53:59.202Z,31.47
2024-05-09T11:04:04.262Z,31.47
2024-05-09T11:14:15.483Z,29.35
2024-05-09T11:24:17.686Z,28.32
2024-05-09T11:34:19.763Z,31.93
2024-05-09T11:44:21.967Z,34.00
2024-05-09T12:25:20.266Z,35.99
2024-05-09T12:35:22.201Z,37.10
2024-05-09T12:45:24.138Z,35.44
2024-05-09T12:55:26.946Z,38.57
2024-05-09T13:05:29.356Z,38.50
2024-05-09T13:25:55.350Z,39.55
2024-05-09T13:35:57.382Z,37.90
2024-05-09T13:45:59.554Z,36.82
2024-05-09T13:56:01.541Z,36.70
2024-05-09T14:06:03.725Z,34.42
2024-05-09T14:16:06.495Z,33.70
2024-05-09T16:32:44.478Z,33.46
2024-05-09T16:42:46.585Z,31.24
2024-05-09T16:52:48.632Z,31.20
2024-05-09T17:07:00.519Z,29.46
2024-05-09T17:17:02.691Z,25.76
2024-05-09T17:27:05.065Z,24.49
2024-05-09T17:37:07.102Z,23.02
2024-05-09T17:47:08.994Z,22.49
2024-05-09T17:57:10.999Z,22.06
2024-05-09T18:07:13.103Z,21.53
2024-05-09T18:17:15.313Z,20.84
2024-05-09T18:27:17.413Z,20.40
2024-05-09T18:37:19.551Z,19.83
2024-05-09T18:47:21.957Z,19.36
2024-05-09T18:57:25.105Z,19.09
2024-05-09T19:07:27.180Z,19.00
2024-05-09T19:17:29.983Z,18.81
2024-05-09T19:27:32.243Z,18.43
2024-05-09T19:37:34.263Z,18.11
2024-05-09T19:47:36.333Z,17.71
2024-05-09T19:57:38.392Z,17.44
2024-05-09T20:07:40.251Z,17.11
2024-05-09T20:17:42.266Z,16.99
2024-05-09T20:27:44.730Z,16.76
2024-05-09T20:37:46.777Z,16.56
2024-05-09T20:47:50.264Z,16.31
2024-05-09T20:57:52.585Z,16.16
2024-05-09T21:07:54.503Z,15.96
2024-05-09T21:17:56.492Z,15.89
2024-05-09T21:27:59.025Z,15.47
2024-05-09T21:38:00.991Z,15.23
2024-05-09T21:48:04.168Z,15.03
2024-05-09T21:58:06.278Z,14.93
2024-05-09T22:08:08.430Z,14.84
2024-05-09T22:18:11.317Z,14.64
2024-05-09T22:28:15.892Z,14.55
2024-05-09T22:38:17.971Z,14.26
2024-05-09T22:48:20.145Z,14.06
2024-05-09T22:58:23.308Z,13.88
2024-05-09T23:08:25.538Z,13.71
2024-05-09T23:18:27.439Z,13.39
2024-05-09T23:28:29.403Z,13.23
2024-05-09T23:38:31.464Z,13.14
2024-05-09T23:48:33.450Z,13.17
2024-05-09T23:58:35.504Z,13.08
